Time;durP1;ratioP1;P1;durP2;ratioP2;P2;SDS_P1;SDS_P2;PMS_P1;PMS_P2;Temp;Humidity;BMP_temperature;BMP_pressure;BME280_temperature;BME280_humidity;BME280_pressure;Samples;Min_cycle;Max_cycle;Signal;HPM_P1;HPM_P2
2022/01/27 00:00:49;;;;;;;33.67;14.68;;;6.50;99.90;;;;;;6375305;22;20014;-88
2022/01/27 00:03:26;;;;;;;33.55;14.77;;;6.50;99.90;;;;;;6348488;22;20021;-90
2022/01/27 00:05:55;;;;;;;;;;;6.50;99.90;;;;;;6376046;22;20021;-90
2022/01/27 00:08:40;;;;;;;31.42;14.80;;;6.50;99.90;;;;;;6373370;22;19920;-89
2022/01/27 00:11:13;;;;;;;36.75;15.32;;;6.50;99.90;;;;;;6374916;22;20451;-87
2022/01/27 00:13:55;;;;;;;28.17;15.00;;;6.60;99.90;;;;;;6401519;22;20477;-88
2022/01/27 00:16:24;;;;;;;27.92;14.80;;;6.50;99.90;;;;;;6375312;22;20057;-88
2022/01/27 00:18:52;;;;;;;30.20;14.35;;;6.50;99.90;;;;;;6374878;22;20017;-85
2022/01/27 00:21:23;;;;;;;34.05;15.43;;;6.50;99.90;;;;;;6403515;22;20025;-86
2022/01/27 00:23:49;;;;;;;31.63;15.68;;;6.50;99.90;;;;;;6402981;22;20021;-88
2022/01/27 00:26:16;;;;;;;33.10;16.20;;;6.50;99.90;;;;;;6403749;22;20021;-88
2022/01/27 00:28:43;;;;;;;34.70;16.42;;;6.50;99.90;;;;;;6375281;22;20010;-92
2022/01/27 00:31:09;;;;;;;33.17;16.45;;;6.50;99.90;;;;;;6375666;22;20065;-91
2022/01/27 00:33:35;;;;;;;31.37;15.90;;;6.50;99.90;;;;;;6401802;22;20068;-89
2022/01/27 00:36:03;;;;;;;34.47;16.58;;;6.50;99.90;;;;;;6375495;22;20045;-85
2022/01/27 00:38:29;;;;;;;30.05;16.63;;;6.50;99.90;;;;;;6375195;22;20320;-86
2022/01/27 00:40:55;;;;;;;31.77;16.50;;;6.50;99.90;;;;;;6403473;22;20581;-88
2022/01/27 00:43:21;;;;;;;33.03;16.40;;;6.50;99.90;;;;;;6403231;22;20018;-91
2022/01/27 00:45:46;;;;;;;32.33;16.43;;;6.50;99.90;;;;;;6375254;22;20010;-86
2022/01/27 00:48:15;;;;;;;35.37;15.53;;;6.50;99.90;;;;;;6376395;22;20017;-87
2022/01/27 00:50:41;;;;;;;32.38;16.73;;;6.50;99.90;;;;;;6377727;22;20093;-87
2022/01/27 00:53:22;;;;;;;33.00;16.50;;;6.50;99.90;;;;;;6403682;22;20065;-90
2022/01/27 00:55:48;;;;;;;33.28;16.52;;;6.40;99.90;;;;;;6405233;22;20077;-90
2022/01/27 01:00:50;;;;;;;29.92;15.93;;;6.50;99.90;;;;;;6403005;22;20029;-87
2022/01/27 01:03:34;;;;;;;32.63;15.68;;;6.40;99.90;;;;;;6348890;22;20013;-86
2022/01/27 01:16:58;;;;;;;33.30;15.97;;;6.40;99.90;;;;;;6405289;22;20030;-92
2022/01/27 01:29:24;;;;;;;32.13;15.67;;;6.40;99.90;;;;;;6404614;22;20029;-87
2022/01/27 01:32:54;;;;;;;31.50;16.65;;;6.30;99.90;;;;;;6403988;22;20014;-84
2022/01/27 01:35:38;;;;;;;33.58;17.67;;;6.30;99.90;;;;;;6377452;22;20022;-93
2022/01/27 01:38:04;;;;;;;30.50;16.05;;;6.30;99.90;;;;;;6405949;22;20016;-91
2022/01/27 01:40:30;;;;;;;30.73;16.73;;;6.30;99.90;;;;;;6406394;22;20005;-90
2022/01/27 01:45:38;;;;;;;38.28;19.25;;;6.20;99.90;;;;;;6414273;22;20451;-90
2022/01/27 01:48:04;;;;;;;34.63;17.70;;;6.20;99.90;;;;;;6365453;22;20018;-94
2022/01/27 01:50:32;;;;;;;31.40;17.60;;;6.20;99.90;;;;;;6386423;22;20010;-94
2022/01/27 01:55:33;;;;;;;35.47;17.58;;;6.20;99.90;;;;;;6254294;22;20012;-89
2022/01/27 01:57:59;;;;;;;31.10;17.13;;;6.20;99.90;;;;;;6204413;23;20050;-96
2022/01/27 02:06:37;;;;;;;32.92;18.55;;;6.20;99.90;;;;;;6408539;22;20018;-96
2022/01/27 02:19:54;;;;;;;35.80;18.58;;;6.10;99.90;;;;;;6402642;22;20022;-87
2022/01/27 02:22:26;;;;;;;35.90;18.55;;;6.10;99.90;;;;;;6375569;22;20495;-93
2022/01/27 02:24:53;;;;;;;34.42;18.35;;;6.10;99.90;;;;;;6374562;22;20018;-95
2022/01/27 02:27:20;;;;;;;34.60;18.92;;;6.10;99.90;;;;;;6348583;22;20006;-94
2022/01/27 02:29:47;;;;;;;33.50;18.42;;;6.10;99.90;;;;;;6348780;22;20025;-91
2022/01/27 02:32:14;;;;;;;33.38;18.67;;;6.10;99.90;;;;;;6350131;22;20021;-92
2022/01/27 02:34:40;;;;;;;;;;;6.10;99.90;;;;;;6378065;22;20014;-94
2022/01/27 02:37:06;;;;;;;36.40;18.40;;;6.10;99.90;;;;;;6402958;22;19921;-95
2022/01/27 02:39:32;;;;;;;34.45;19.52;;;6.10;99.90;;;;;;6406384;22;20010;-90
2022/01/27 02:42:20;;;;;;;34.37;19.97;;;6.10;99.90;;;;;;6407308;22;20351;-96
2022/01/27 02:44:45;;;;;;;37.55;20.00;;;6.20;99.90;;;;;;6379232;22;20108;-93
2022/01/27 02:47:15;;;;;;;35.67;19.40;;;6.20;99.90;;;;;;6376211;22;20014;-93
2022/01/27 02:49:42;;;;;;;36.78;20.23;;;6.10;99.90;;;;;;6374522;22;20014;-92
2022/01/27 02:52:08;;;;;;;40.20;21.65;;;6.20;99.90;;;;;;6402175;22;20075;-86
2022/01/27 02:54:34;;;;;;;37.90;20.80;;;6.20;99.90;;;;;;6374734;22;20446;-92
2022/01/27 02:57:00;;;;;;;38.10;19.85;;;6.20;99.90;;;;;;6377488;22;20476;-87
2022/01/27 02:59:25;;;;;;;37.83;20.53;;;6.10;99.90;;;;;;6407834;22;20014;-91
2022/01/27 03:01:51;;;;;;;36.47;20.33;;;6.10;99.90;;;;;;6408480;22;20024;-89
2022/01/27 03:04:18;;;;;;;39.08;22.33;;;6.10;99.90;;;;;;6307988;22;20061;-83
2022/01/27 03:06:45;;;;;;;36.78;21.17;;;6.20;99.90;;;;;;6241946;22;20427;-95
2022/01/27 03:09:12;;;;;;;35.85;20.75;;;6.10;99.90;;;;;;6243216;22;20020;-92
2022/01/27 03:11:51;;;;;;;40.10;21.77;;;6.20;99.90;;;;;;6240889;23;20038;-89
2022/01/27 03:14:20;;;;;;;37.50;22.38;;;6.20;99.90;;;;;;6241827;22;20016;-90
2022/01/27 03:16:47;;;;;;;38.58;21.17;;;6.20;99.90;;;;;;6244159;23;20027;-96
2022/01/27 03:19:14;;;;;;;44.28;21.80;;;6.20;99.90;;;;;;6245114;23;20020;-89
2022/01/27 03:21:45;;;;;;;39.22;21.38;;;6.20;99.90;;;;;;6242046;23;20104;-85
2022/01/27 03:24:10;;;;;;;34.80;21.05;;;6.20;99.90;;;;;;6215798;23;20028;-83
2022/01/27 03:26:36;;;;;;;42.80;21.60;;;6.20;99.90;;;;;;6215318;23;20012;-85
2022/01/27 03:29:03;;;;;;;41.10;21.20;;;6.30;99.90;;;;;;6241824;22;20095;-83
2022/01/27 03:31:28;;;;;;;37.75;20.67;;;6.20;99.90;;;;;;6241177;23;20453;-84
2022/01/27 03:33:54;;;;;;;38.83;20.53;;;6.20;99.90;;;;;;6240449;23;20026;-89
2022/01/27 03:36:20;;;;;;;37.17;21.00;;;6.20;99.90;;;;;;6241081;23;20052;-84
2022/01/27 03:38:47;;;;;;;41.08;20.30;;;6.30;99.90;;;;;;6241167;23;20445;-84
2022/01/27 03:41:18;;;;;;;36.80;20.92;;;6.30;99.90;;;;;;6242049;22;20018;-87
2022/01/27 03:43:44;;;;;;;35.80;19.80;;;6.30;99.90;;;;;;6240902;23;20023;-83
2022/01/27 03:46:09;;;;;;;33.77;19.87;;;6.30;99.90;;;;;;6215576;23;20009;-89
2022/01/27 03:48:35;;;;;;;40.37;20.20;;;6.30;99.90;;;;;;6215294;22;20012;-85
2022/01/27 03:51:01;;;;;;;44.77;21.53;;;6.30;99.90;;;;;;6215187;23;20016;-85
2022/01/27 03:53:27;;;;;;;43.33;19.65;;;6.30;99.90;;;;;;6240981;22;20017;-86
2022/01/27 03:55:52;;;;;;;36.83;19.43;;;6.30;99.90;;;;;;6242066;23;20338;-87
2022/01/27 03:58:18;;;;;;;36.73;19.43;;;6.30;99.90;;;;;;6242296;23;20344;-82
2022/01/27 04:00:44;;;;;;;35.80;20.10;;;6.40;99.90;;;;;;6242557;23;20095;-84
2022/01/27 04:03:12;;;;;;;34.63;18.60;;;6.40;99.90;;;;;;6241728;23;20483;-84
2022/01/27 04:05:48;;;;;;;38.25;19.60;;;6.40;99.90;;;;;;6240673;23;20375;-83
2022/01/27 04:08:14;;;;;;;40.72;19.92;;;6.40;99.90;;;;;;6242553;22;20027;-87
2022/01/27 04:10:40;;;;;;;37.37;20.07;;;6.40;99.90;;;;;;6242466;23;20012;-83
2022/01/27 04:13:07;;;;;;;39.65;19.80;;;6.40;99.90;;;;;;6240561;23;20038;-86
2022/01/27 04:15:33;;;;;;;;;;;6.40;99.90;;;;;;6241138;23;20472;-85
2022/01/27 04:17:59;;;;;;;36.03;19.80;;;6.40;99.90;;;;;;6240895;23;19987;-85
2022/01/27 04:20:25;;;;;;;43.03;19.93;;;6.40;99.90;;;;;;6240872;23;20048;-89
2022/01/27 04:22:51;;;;;;;44.37;20.07;;;6.30;99.90;;;;;;6242020;23;20530;-83
2022/01/27 04:25:16;;;;;;;37.80;19.90;;;6.30;99.90;;;;;;6240783;23;20100;-84
2022/01/27 04:27:48;;;;;;;36.37;18.97;;;6.40;99.90;;;;;;6242057;23;20124;-84
2022/01/27 04:30:17;;;;;;;39.28;19.88;;;6.40;99.90;;;;;;6240447;23;20016;-86
2022/01/27 04:32:49;;;;;;;39.17;19.05;;;6.40;99.90;;;;;;6240661;23;20020;-84
2022/01/27 04:35:20;;;;;;;36.70;18.02;;;6.40;99.90;;;;;;6240604;23;20020;-88
2022/01/27 04:40:40;;;;;;;43.33;18.20;;;6.40;99.90;;;;;;6242080;22;20016;-85
2022/01/27 04:43:16;;;;;;;37.03;19.27;;;6.40;99.90;;;;;;6242504;22;20040;-89
2022/01/27 04:46:10;;;;;;;39.60;18.90;;;6.40;99.90;;;;;;6241318;23;20348;-89
2022/01/27 04:48:41;;;;;;;38.08;18.00;;;6.40;99.90;;;;;;6242250;23;20012;-91
2022/01/27 04:51:09;;;;;;;46.88;19.45;;;6.40;99.90;;;;;;6245713;22;20016;-93
2022/01/27 04:53:42;;;;;;;42.03;19.02;;;6.40;99.90;;;;;;6241045;23;20400;-86
2022/01/27 04:56:12;;;;;;;36.15;18.33;;;6.40;99.90;;;;;;6241501;23;20024;-94
2022/01/27 04:58:39;;;;;;;41.70;17.92;;;6.40;99.90;;;;;;6242922;23;20020;-94
2022/01/27 05:01:05;;;;;;;39.92;18.65;;;6.40;99.90;;;;;;6242193;22;20058;-83
2022/01/27 05:05:59;;;;;;;48.25;19.65;;;6.40;99.90;;;;;;6240621;23;20049;-84
2022/01/27 05:08:25;;;;;;;46.47;20.00;;;6.40;99.90;;;;;;6240379;23;20052;-82
2022/01/27 05:11:01;;;;;;;45.97;21.43;;;6.40;99.90;;;;;;6241717;23;20020;-85
2022/01/27 05:13:30;;;;;;;45.63;20.45;;;6.30;99.90;;;;;;6239249;23;20012;-87
2022/01/27 05:15:56;;;;;;;54.25;21.17;;;6.30;99.90;;;;;;6240429;23;20055;-89
2022/01/27 05:18:21;;;;;;;44.63;20.47;;;6.30;99.90;;;;;;6241976;23;20058;-88
2022/01/27 05:20:47;;;;;;;45.17;19.87;;;6.30;99.90;;;;;;6242152;23;20099;-85
2022/01/27 05:23:14;;;;;;;43.78;20.15;;;6.20;99.90;;;;;;6239496;23;20437;-89
2022/01/27 05:25:40;;;;;;;43.53;20.02;;;6.20;99.90;;;;;;6240972;23;20449;-89
2022/01/27 05:28:07;;;;;;;46.50;21.15;;;6.30;99.90;;;;;;6240961;23;20095;-85
2022/01/27 05:30:34;;;;;;;41.67;19.77;;;6.30;99.90;;;;;;6240671;23;20026;-82
2022/01/27 05:33:00;;;;;;;47.45;20.17;;;6.20;99.90;;;;;;6240384;23;20015;-86
2022/01/27 05:35:25;;;;;;;45.50;19.60;;;6.30;99.90;;;;;;6240479;23;20424;-82
2022/01/27 05:37:51;;;;;;;43.67;19.90;;;6.20;99.90;;;;;;6241902;22;20019;-86
2022/01/27 05:40:17;;;;;;;47.40;21.23;;;6.30;99.90;;;;;;6242011;23;20016;-83
2022/01/27 05:42:42;;;;;;;51.37;20.87;;;6.20;99.90;;;;;;6240379;23;20012;-84
2022/01/27 05:45:09;;;;;;;50.10;21.37;;;6.30;99.90;;;;;;6214831;23;20023;-84
2022/01/27 05:47:34;;;;;;;50.28;21.00;;;6.30;99.90;;;;;;6241788;22;20016;-87
2022/01/27 05:50:00;;;;;;;44.93;20.67;;;6.20;99.90;;;;;;6240263;23;20023;-88
2022/01/27 05:52:25;;;;;;;43.47;19.60;;;6.20;99.90;;;;;;6240524;23;20083;-83
2022/01/27 05:54:51;;;;;;;41.17;20.03;;;6.30;99.90;;;;;;6214824;23;20091;-83
2022/01/27 05:57:29;;;;;;;42.30;18.73;;;6.30;99.90;;;;;;6242484;23;20383;-84
2022/01/27 06:00:05;;;;;;;44.60;18.15;;;6.30;99.90;;;;;;6240194;23;20024;-83
2022/01/27 06:02:30;;;;;;;39.28;18.17;;;6.30;99.90;;;;;;6240184;23;20494;-86
2022/01/27 06:04:56;;;;;;;41.10;18.97;;;6.30;99.90;;;;;;6239723;23;20024;-84
2022/01/27 06:07:22;;;;;;;40.73;18.33;;;6.30;99.90;;;;;;6241143;23;20341;-91
2022/01/27 06:09:47;;;;;;;39.30;18.57;;;6.30;99.90;;;;;;6241018;23;20016;-87
2022/01/27 06:12:13;;;;;;;42.37;19.47;;;6.30;99.90;;;;;;6241727;23;20023;-89
2022/01/27 06:14:39;;;;;;;42.50;18.97;;;6.40;99.90;;;;;;6239816;23;20500;-85
2022/01/27 06:17:05;;;;;;;38.85;17.80;;;6.40;99.90;;;;;;6214856;22;20337;-82
2022/01/27 06:19:30;;;;;;;37.80;18.17;;;6.40;99.90;;;;;;6212421;23;20017;-85
2022/01/27 06:21:56;;;;;;;35.20;17.80;;;6.30;99.90;;;;;;6239203;23;20016;-84
2022/01/27 06:24:22;;;;;;;34.53;17.47;;;6.40;99.90;;;;;;6240275;23;20340;-83
2022/01/27 06:26:47;;;;;;;39.83;18.07;;;6.50;99.90;;;;;;6239781;23;20027;-82
2022/01/27 06:29:13;;;;;;;40.23;17.30;;;6.40;99.90;;;;;;6241069;23;20021;-83
2022/01/27 06:31:39;;;;;;;42.90;18.60;;;6.40;99.90;;;;;;6239116;23;20012;-86
2022/01/27 06:34:04;;;;;;;42.97;19.63;;;6.50;99.90;;;;;;6241341;22;20012;-87
2022/01/27 06:36:30;;;;;;;33.40;17.23;;;6.50;99.90;;;;;;6241136;23;20020;-86
2022/01/27 06:38:56;;;;;;;36.53;16.77;;;6.40;99.90;;;;;;6241431;23;20016;-89
2022/01/27 06:41:22;;;;;;;39.77;17.77;;;6.50;99.90;;;;;;6240241;23;20048;-90
2022/01/27 06:43:49;;;;;;;39.30;16.90;;;6.50;99.90;;;;;;6241613;23;21281;-96
2022/01/27 06:46:15;;;;;;;35.35;16.08;;;6.50;99.90;;;;;;6243599;23;20568;-90
2022/01/27 06:48:41;;;;;;;38.83;16.97;;;6.50;99.90;;;;;;6237622;23;20027;-90
2022/01/27 06:51:07;;;;;;;40.22;17.80;;;6.50;99.90;;;;;;6214166;23;20023;-88
2022/01/27 06:53:33;;;;;;;36.50;16.97;;;6.50;99.90;;;;;;6241311;22;20016;-88
2022/01/27 06:55:59;;;;;;;35.47;16.33;;;6.60;99.90;;;;;;6243778;23;20016;-88
2022/01/27 06:58:24;;;;;;;33.05;15.93;;;6.60;99.90;;;;;;6247285;23;20353;-92
2022/01/27 07:00:50;;;;;;;38.13;16.33;;;6.60;99.90;;;;;;6247183;23;20031;-88
2022/01/27 07:03:16;;;;;;;36.83;16.38;;;6.60;99.90;;;;;;6245612;23;20016;-88
2022/01/27 07:05:42;;;;;;;34.77;15.47;;;6.60;99.90;;;;;;6244802;23;20058;-88
2022/01/27 07:08:11;;;;;;;41.97;16.95;;;6.60;99.90;;;;;;6247290;23;20058;-94
2022/01/27 07:10:37;;;;;;;36.67;16.37;;;6.70;99.90;;;;;;6225778;23;20016;-89
2022/01/27 07:13:05;;;;;;;37.80;16.00;;;6.70;99.90;;;;;;6227789;22;20441;-89
2022/01/27 07:15:31;;;;;;;37.75;16.40;;;6.70;99.90;;;;;;6245693;23;20027;-95
2022/01/27 07:17:56;;;;;;;39.97;16.25;;;6.70;99.90;;;;;;6246676;23;20016;-93
2022/01/27 07:20:22;;;;;;;36.33;15.40;;;6.70;99.90;;;;;;6218798;23;20012;-85
2022/01/27 07:22:48;;;;;;;37.80;15.43;;;6.70;99.90;;;;;;6245151;23;20016;-85
2022/01/27 07:25:14;;;;;;;34.57;15.13;;;6.70;99.90;;;;;;6242011;23;20116;-85
2022/01/27 07:27:40;;;;;;;31.90;14.03;;;6.70;99.90;;;;;;6241491;22;20024;-84
2022/01/27 07:30:06;;;;;;;31.90;13.97;;;6.70;99.90;;;;;;6241055;22;20270;-84
2022/01/27 07:32:32;;;;;;;31.05;13.77;;;6.80;99.90;;;;;;6241327;22;20031;-83
2022/01/27 07:34:58;;;;;;;28.75;14.52;;;6.80;99.90;;;;;;6240180;23;20158;-84
2022/01/27 07:37:24;;;;;;;34.13;14.53;;;6.80;99.90;;;;;;6241587;23;20027;-84
2022/01/27 07:39:49;;;;;;;32.73;15.43;;;6.80;99.90;;;;;;6241770;22;20020;-85
2022/01/27 07:42:15;;;;;;;33.43;15.47;;;6.80;99.90;;;;;;6239658;23;20096;-84
2022/01/27 07:44:41;;;;;;;41.07;15.93;;;6.90;99.90;;;;;;6241688;23;20016;-84
2022/01/27 07:47:07;;;;;;;38.47;16.33;;;6.90;99.90;;;;;;6239436;23;20016;-84
2022/01/27 07:49:33;;;;;;;40.67;15.37;;;6.90;99.90;;;;;;6240277;23;20017;-84
2022/01/27 07:51:59;;;;;;;42.22;15.43;;;6.90;99.90;;;;;;6241716;22;20081;-84
2022/01/27 07:54:25;;;;;;;40.42;14.60;;;6.90;99.90;;;;;;6240177;23;20020;-84
2022/01/27 07:56:50;;;;;;;38.63;15.60;;;7.00;99.90;;;;;;6240894;23;20349;-84
2022/01/27 07:59:16;;;;;;;39.73;14.63;;;7.00;99.90;;;;;;6214666;23;20017;-84
2022/01/27 08:01:42;;;;;;;34.87;14.00;;;7.10;99.90;;;;;;6214522;23;20020;-84
2022/01/27 08:04:08;;;;;;;32.70;13.53;;;7.10;99.90;;;;;;6240077;23;20019;-84
2022/01/27 08:06:34;;;;;;;33.67;12.97;;;7.10;99.90;;;;;;6239866;22;20517;-83
2022/01/27 08:08:59;;;;;;;40.10;14.37;;;7.20;99.90;;;;;;6214567;23;20020;-84
2022/01/27 08:11:25;;;;;;;39.47;14.13;;;7.20;99.90;;;;;;6240241;23;20028;-85
2022/01/27 08:13:51;;;;;;;42.57;13.50;;;7.20;99.90;;;;;;6239815;23;20016;-84
2022/01/27 08:16:17;;;;;;;35.50;13.17;;;7.20;99.90;;;;;;6239358;23;20178;-83
2022/01/27 08:18:43;;;;;;;38.75;13.40;;;7.30;99.90;;;;;;6241543;23;20020;-84
2022/01/27 08:21:09;;;;;;;39.40;13.70;;;7.30;99.90;;;;;;6240116;23;20077;-84
2022/01/27 08:23:35;;;;;;;31.98;12.45;;;7.30;99.90;;;;;;6241562;22;20020;-84
2022/01/27 08:26:07;;;;;;;34.03;11.20;;;7.30;99.90;;;;;;6240926;22;20070;-84
2022/01/27 08:28:45;;;;;;;35.45;11.93;;;7.30;99.90;;;;;;6241345;22;20330;-84
2022/01/27 08:31:13;;;;;;;39.63;12.00;;;7.40;99.90;;;;;;6238935;23;20016;-84
2022/01/27 08:33:40;;;;;;;33.05;11.73;;;7.40;99.90;;;;;;6239910;23;20525;-85
2022/01/27 08:36:06;;;;;;;36.72;10.85;;;7.40;99.90;;;;;;6241383;22;20043;-85
2022/01/27 08:38:32;;;;;;;29.23;10.15;;;7.40;99.90;;;;;;6241559;23;20400;-85
2022/01/27 08:41:01;;;;;;;28.33;8.97;;;7.60;99.90;;;;;;6241675;23;20020;-85
2022/01/27 08:43:27;;;;;;;33.22;9.30;;;7.60;99.90;;;;;;6240010;23;20432;-85
2022/01/27 08:45:53;;;;;;;27.92;9.90;;;7.60;99.90;;;;;;6240715;22;20517;-85
2022/01/27 08:48:21;;;;;;;28.70;10.03;;;7.60;99.90;;;;;;6241426;22;20012;-85
2022/01/27 08:50:58;;;;;;;24.40;8.60;;;7.60;99.90;;;;;;6239712;23;20475;-84
2022/01/27 08:53:25;;;;;;;26.55;7.95;;;7.60;99.90;;;;;;6239900;23;20459;-84
2022/01/27 08:55:51;;;;;;;29.65;9.00;;;7.70;99.90;;;;;;6241241;22;20051;-85
2022/01/27 08:58:17;;;;;;;37.03;9.27;;;7.70;99.90;;;;;;6214505;23;20013;-85
2022/01/27 09:00:42;;;;;;;23.70;8.03;;;7.70;99.90;;;;;;6238362;23;20012;-85
2022/01/27 09:03:08;;;;;;;27.70;8.13;;;7.70;99.90;;;;;;6239458;23;20020;-84
2022/01/27 09:05:35;;;;;;;28.83;8.10;;;7.70;99.90;;;;;;6239662;23;20031;-85
2022/01/27 09:08:02;;;;;;;27.38;7.82;;;7.70;99.90;;;;;;6239773;23;20108;-85
2022/01/27 09:10:31;;;;;;;28.88;8.27;;;7.80;99.90;;;;;;6213226;23;20034;-85
2022/01/27 09:13:00;;;;;;;23.35;6.68;;;7.80;99.90;;;;;;6241396;22;20027;-85
2022/01/27 09:15:27;;;;;;;34.58;7.95;;;7.80;99.90;;;;;;6239626;23;20016;-86
2022/01/27 09:17:53;;;;;;;26.80;7.75;;;7.80;99.90;;;;;;6239635;23;20095;-85
2022/01/27 09:20:19;;;;;;;30.90;7.60;;;7.90;99.90;;;;;;6238801;23;20016;-85
2022/01/27 09:22:45;;;;;;;28.10;7.20;;;7.80;99.90;;;;;;6241030;22;20074;-84
2022/01/27 09:25:20;;;;;;;24.40;7.40;;;7.90;99.90;;;;;;6239202;23;20012;-84
2022/01/27 09:27:46;;;;;;;27.13;7.20;;;7.90;99.90;;;;;;6239708;23;20020;-85
2022/01/27 09:30:15;;;;;;;25.65;6.65;;;7.90;99.90;;;;;;6240088;22;20073;-84
2022/01/27 09:32:41;;;;;;;23.05;6.22;;;7.90;99.90;;;;;;6240919;22;20024;-85
2022/01/27 09:35:08;;;;;;;23.30;6.43;;;7.90;99.90;;;;;;6239372;23;20020;-85
2022/01/27 09:37:33;;;;;;;24.92;5.75;;;7.90;99.90;;;;;;6239626;23;20016;-85
2022/01/27 09:39:59;;;;;;;28.30;5.93;;;7.90;99.90;;;;;;6240755;22;20008;-85
2022/01/27 09:42:28;;;;;;;33.60;7.93;;;7.90;99.90;;;;;;6239351;23;20345;-84
2022/01/27 09:44:55;;;;;;;24.15;6.05;;;8.00;99.90;;;;;;6240218;22;20100;-85
2022/01/27 09:47:25;;;;;;;31.05;6.40;;;8.00;99.90;;;;;;6240545;22;20012;-84
2022/01/27 09:49:55;;;;;;;22.02;5.70;;;8.00;99.90;;;;;;6240961;22;20023;-84
2022/01/27 09:52:21;;;;;;;26.42;5.93;;;8.00;99.90;;;;;;6239232;23;20391;-85
2022/01/27 09:54:47;;;;;;;29.25;5.93;;;8.00;99.90;;;;;;6241156;22;20123;-84
2022/01/27 09:57:17;;;;;;;25.17;6.43;;;8.10;99.90;;;;;;6239516;23;20024;-85
2022/01/27 09:59:44;;;;;;;23.40;5.80;;;8.10;99.90;;;;;;6239579;23;20353;-86
2022/01/27 10:02:13;;;;;;;;;;;8.10;99.90;;;;;;6214685;23;20016;-85
2022/01/27 10:04:48;;;;;;;21.27;5.35;;;8.10;99.90;;;;;;6243970;22;19915;-85
2022/01/27 10:07:16;;;;;;;22.55;5.40;;;8.10;99.90;;;;;;6372032;22;20052;-84
2022/01/27 10:09:57;;;;;;;21.63;5.05;;;8.20;99.90;;;;;;6373162;22;20017;-85
2022/01/27 10:12:28;;;;;;;24.45;5.70;;;8.20;99.90;;;;;;6346713;22;20048;-85
2022/01/27 10:15:00;;;;;;;24.27;4.95;;;8.20;99.90;;;;;;6373350;22;20071;-85
2022/01/27 10:17:26;;;;;;;23.25;5.18;;;8.20;99.90;;;;;;6401553;22;20021;-85
2022/01/27 10:19:53;;;;;;;23.58;4.78;;;8.30;99.90;;;;;;6401421;22;20025;-85
2022/01/27 10:22:19;;;;;;;23.15;5.07;;;8.30;99.90;;;;;;6372619;22;20071;-85
2022/01/27 10:24:45;;;;;;;26.03;5.03;;;8.30;99.90;;;;;;6401655;22;20013;-85
2022/01/27 10:27:29;;;;;;;22.27;5.20;;;8.30;99.90;;;;;;6401589;22;20022;-84
2022/01/27 10:32:37;;;;;;;22.92;5.13;;;8.40;99.90;;;;;;6402319;22;20022;-85
2022/01/27 10:35:04;;;;;;;20.73;5.10;;;8.30;99.90;;;;;;6375397;22;20026;-85
2022/01/27 10:38:03;;;;;;;23.98;5.78;;;8.40;99.90;;;;;;6403644;22;20017;-83
2022/01/27 10:40:33;;;;;;;;;;;8.40;99.90;;;;;;6375809;22;20021;-85
2022/01/27 10:43:05;;;;;;;27.25;5.65;;;8.50;99.90;;;;;;6375012;22;19928;-84
2022/01/27 10:45:31;;;;;;;24.13;5.10;;;8.50;99.90;;;;;;6375522;22;20017;-84
2022/01/27 10:48:24;;;;;;;22.23;4.35;;;8.50;99.90;;;;;;6375290;22;20024;-85
2022/01/27 10:51:17;;;;;;;28.48;5.90;;;8.60;99.90;;;;;;6374280;22;20032;-85
2022/01/27 10:53:56;;;;;;;19.48;5.07;;;8.60;99.90;;;;;;6402484;22;20029;-85
2022/01/27 10:56:25;;;;;;;27.90;6.30;;;8.70;99.90;;;;;;6375234;22;20443;-84
2022/01/27 10:58:51;;;;;;;23.00;5.30;;;8.70;99.90;;;;;;6403189;22;20458;-83
2022/01/27 11:01:32;;;;;;;26.52;5.20;;;8.70;99.90;;;;;;6374707;22;20021;-86
2022/01/27 11:04:00;;;;;;;26.25;5.82;;;8.70;99.90;;;;;;6374977;22;20013;-84
2022/01/27 11:06:28;;;;;;;21.13;4.72;;;8.70;99.90;;;;;;6402991;22;20009;-84
2022/01/27 11:08:56;;;;;;;25.40;5.40;;;8.70;99.90;;;;;;6403213;22;20436;-84
2022/01/27 11:11:26;;;;;;;23.92;4.75;;;8.70;99.90;;;;;;6374913;22;20455;-84
2022/01/27 11:13:54;;;;;;;25.40;5.05;;;8.70;99.90;;;;;;6403060;22;20158;-86
2022/01/27 11:16:27;;;;;;;21.30;4.75;;;8.80;99.90;;;;;;6402968;22;20017;-85
2022/01/27 11:19:00;;;;;;;25.17;5.70;;;8.70;99.90;;;;;;6374613;22;20010;-85
2022/01/27 11:21:35;;;;;;;26.63;5.00;;;8.70;99.90;;;;;;6374934;22;20388;-84
2022/01/27 11:24:06;;;;;;;19.08;4.75;;;8.80;99.90;;;;;;6374942;22;20064;-84
2022/01/27 11:26:37;;;;;;;28.17;4.93;;;8.70;99.90;;;;;;6403175;22;20759;-84
2022/01/27 11:29:05;;;;;;;23.63;4.70;;;8.70;99.90;;;;;;6402959;22;20022;-84
2022/01/27 11:31:54;;;;;;;24.02;4.65;;;8.70;99.90;;;;;;6374997;22;20017;-84
2022/01/27 11:34:20;;;;;;;27.10;5.38;;;8.70;99.90;;;;;;6403221;22;20037;-85
2022/01/27 11:37:05;;;;;;;28.40;4.88;;;8.80;99.90;;;;;;6374539;22;20450;-84
2022/01/27 11:39:54;;;;;;;26.17;4.60;;;8.80;99.90;;;;;;6402453;22;20047;-86
2022/01/27 11:42:35;;;;;;;26.20;4.65;;;8.80;99.90;;;;;;6374219;22;20014;-83
2022/01/27 11:45:23;;;;;;;23.38;4.65;;;8.80;99.90;;;;;;6348217;22;20017;-85
2022/01/27 11:47:58;;;;;;;26.73;4.50;;;8.80;99.90;;;;;;6374520;22;20010;-85
2022/01/27 11:50:36;;;;;;;21.90;4.50;;;8.80;99.90;;;;;;6402672;22;20013;-84
2022/01/27 11:53:07;;;;;;;26.30;4.20;;;8.80;99.90;;;;;;6374657;22;20014;-86
2022/01/27 11:55:32;;;;;;;26.75;3.85;;;8.80;99.90;;;;;;6374645;22;20056;-85
2022/01/27 11:58:00;;;;;;;22.30;4.60;;;8.80;99.90;;;;;;6348280;22;20014;-85
2022/01/27 12:00:30;;;;;;;21.88;4.57;;;8.90;99.90;;;;;;6374441;22;20100;-85
2022/01/27 12:03:02;;;;;;;23.67;4.28;;;8.90;99.90;;;;;;6348201;22;20042;-85
2022/01/27 12:06:12;;;;;;;24.92;4.15;;;8.80;99.90;;;;;;6401167;22;20022;-85
2022/01/27 12:08:38;;;;;;;22.40;4.15;;;8.90;99.90;;;;;;6370399;22;20014;-84
2022/01/27 12:11:07;;;;;;;25.80;4.03;;;8.80;99.90;;;;;;6374401;22;20010;-86
2022/01/27 12:13:44;;;;;;;25.88;4.43;;;8.90;99.90;;;;;;6347945;22;20018;-85
2022/01/27 12:19:04;;;;;;;25.60;4.40;;;8.90;99.90;;;;;;6374451;22;20029;-85
2022/01/27 12:21:30;;;;;;;25.83;4.80;;;9.00;99.90;;;;;;6347816;22;20014;-85
2022/01/27 12:24:30;;;;;;;30.55;4.45;;;9.00;99.90;;;;;;6347837;22;20010;-85
2022/01/27 12:26:58;;;;;;;23.02;3.95;;;8.90;99.90;;;;;;6373883;22;20046;-85
2022/01/27 12:29:41;;;;;;;21.10;3.45;;;9.00;99.90;;;;;;6402038;22;20014;-87
2022/01/27 12:32:09;;;;;;;26.92;4.38;;;8.90;99.90;;;;;;6373542;22;20043;-85
2022/01/27 12:34:37;;;;;;;30.20;4.47;;;8.90;99.90;;;;;;6402685;22;20053;-85
2022/01/27 12:37:08;;;;;;;29.55;4.65;;;8.90;99.90;;;;;;6374430;22;20049;-86
2022/01/27 12:39:42;;;;;;;25.52;3.90;;;9.00;99.90;;;;;;6402392;22;20059;-87
2022/01/27 12:42:14;;;;;;;25.35;4.32;;;8.90;99.90;;;;;;6347892;22;20092;-86
2022/01/27 12:44:56;;;;;;;23.73;3.95;;;9.00;99.90;;;;;;6374029;22;20438;-85
2022/01/27 12:47:23;;;;;;;30.02;4.40;;;8.90;99.90;;;;;;6373332;22;20021;-86
2022/01/27 12:49:59;;;;;;;28.23;4.28;;;9.00;99.90;;;;;;6401957;22;20096;-85
2022/01/27 12:52:28;;;;;;;30.38;4.50;;;9.00;99.90;;;;;;6401495;22;20462;-85
2022/01/27 12:54:54;;;;;;;26.98;4.15;;;9.00;99.90;;;;;;6372842;22;20474;-86
2022/01/27 12:57:25;;;;;;;28.73;3.97;;;9.00;99.90;;;;;;6401743;22;20018;-86
2022/01/27 12:59:53;;;;;;;24.55;3.50;;;8.90;99.90;;;;;;6401730;22;20016;-86
2022/01/27 13:02:20;;;;;;;23.20;4.05;;;9.00;99.90;;;;;;6401401;22;20010;-85
2022/01/27 13:04:47;;;;;;;29.73;4.78;;;9.00;99.90;;;;;;6373974;22;20089;-86
2022/01/27 13:07:13;;;;;;;25.95;4.55;;;9.00;99.90;;;;;;6402024;22;20014;-86
2022/01/27 13:09:39;;;;;;;19.08;3.15;;;8.90;99.90;;;;;;6373329;22;20455;-85
2022/01/27 13:12:16;;;;;;;20.75;3.65;;;9.00;99.90;;;;;;6400769;22;20025;-84
2022/01/27 13:14:50;;;;;;;26.85;4.35;;;9.00;99.90;;;;;;6374051;22;20018;-87
2022/01/27 13:17:27;;;;;;;28.13;3.90;;;8.90;99.90;;;;;;6401974;22;20013;-85
2022/01/27 13:19:58;;;;;;;28.95;4.47;;;8.90;99.90;;;;;;6401395;22;20025;-87
2022/01/27 13:22:31;;;;;;;27.77;3.97;;;8.90;99.90;;;;;;6401075;22;20014;-87
2022/01/27 13:24:57;;;;;;;27.70;4.38;;;9.00;99.90;;;;;;6373719;22;20013;-89
2022/01/27 13:27:22;;;;;;;25.77;3.90;;;9.00;99.90;;;;;;6402074;22;20024;-87
2022/01/27 13:29:48;;;;;;;27.10;4.10;;;9.00;99.90;;;;;;6373821;22;20089;-86
2022/01/27 13:32:14;;;;;;;24.25;3.83;;;9.00;99.90;;;;;;6347856;22;20026;-85
2022/01/27 13:34:43;;;;;;;23.88;3.60;;;8.90;99.90;;;;;;6373344;22;20013;-86
2022/01/27 13:37:09;;;;;;;25.85;3.67;;;8.90;99.90;;;;;;6346146;22;20018;-86
2022/01/27 13:42:13;;;;;;;29.33;3.78;;;8.80;99.90;;;;;;6371855;22;20017;-86
2022/01/27 13:44:57;;;;;;;22.90;3.78;;;8.80;99.90;;;;;;6372567;22;20018;-86
2022/01/27 13:47:28;;;;;;;23.77;4.00;;;8.80;99.90;;;;;;6373092;22;20026;-88
2022/01/27 13:50:06;;;;;;;25.02;4.78;;;8.80;99.90;;;;;;6371831;22;20442;-86
2022/01/27 13:52:38;;;;;;;;;;;8.80;99.90;;;;;;6347935;22;20450;-86